Time;durP1;ratioP1;P1;durP2;ratioP2;P2;SDS_P1;SDS_P2;PMS_P1;PMS_P2;Temp;Humidity;BMP_temperature;BMP_pressure;BME280_temperature;BME280_humidity;BME280_pressure;Samples;Min_cycle;Max_cycle;Signal;HPM_P1;HPM_P2
2022/03/15 00:01:12;;;;;;;7.18;3.80;;;8.30;99.90;;;;;;4969130;28;20476;-87
2022/03/15 00:03:43;;;;;;;7.47;3.75;;;8.40;99.90;;;;;;4966420;29;20229;-86
2022/03/15 00:06:15;;;;;;;7.37;3.57;;;8.40;99.90;;;;;;4964948;29;20217;-86
2022/03/15 00:08:48;;;;;;;11.07;3.60;;;8.40;99.90;;;;;;4963802;28;20499;-86
2022/03/15 00:11:15;;;;;;;7.57;3.80;;;8.50;99.90;;;;;;4963954;28;20551;-86
2022/03/15 00:13:42;;;;;;;8.70;4.30;;;8.50;99.90;;;;;;4962581;28;20209;-87
2022/03/15 00:16:11;;;;;;;10.70;3.73;;;8.30;99.90;;;;;;4967568;28;20224;-87
2022/03/15 00:18:43;;;;;;;6.73;4.03;;;8.30;99.90;;;;;;4966380;28;20469;-87
2022/03/15 00:21:15;;;;;;;9.90;4.00;;;8.40;99.90;;;;;;4973743;29;20857;-87
2022/03/15 00:23:42;;;;;;;10.03;4.00;;;8.40;99.90;;;;;;4957634;29;20422;-87
2022/03/15 00:26:09;;;;;;;7.20;3.40;;;8.50;99.90;;;;;;4973891;28;20456;-87
2022/03/15 00:28:37;;;;;;;7.57;3.40;;;8.60;99.90;;;;;;4965185;28;20469;-85
2022/03/15 00:31:10;;;;;;;5.97;4.03;;;8.50;99.90;;;;;;4964239;28;20549;-87
2022/03/15 00:33:39;;;;;;;6.80;3.80;;;8.50;99.90;;;;;;4962534;29;20422;-87
2022/03/15 00:36:08;;;;;;;6.80;3.93;;;8.40;99.90;;;;;;4973503;28;20441;-86
2022/03/15 00:38:41;;;;;;;6.27;3.57;;;8.40;99.90;;;;;;4966430;28;20493;-87
2022/03/15 00:41:09;;;;;;;7.10;3.53;;;8.40;99.90;;;;;;4964610;28;20465;-86
2022/03/15 00:43:36;;;;;;;5.87;3.43;;;8.40;99.90;;;;;;4956480;28;20449;-86
2022/03/15 00:46:04;;;;;;;6.23;3.37;;;8.50;99.90;;;;;;4956647;28;20496;-86
2022/03/15 00:48:34;;;;;;;8.47;3.87;;;8.50;99.90;;;;;;4957911;28;20560;-86
2022/03/15 00:51:04;;;;;;;13.33;3.80;;;8.60;99.90;;;;;;4959744;28;20465;-86
2022/03/15 00:53:31;;;;;;;6.97;3.20;;;8.60;99.90;;;;;;4958848;29;20813;-87
2022/03/15 00:56:05;;;;;;;8.17;3.80;;;8.50;99.90;;;;;;4960953;28;20450;-85
2022/03/15 00:58:36;;;;;;;7.70;3.97;;;8.60;99.90;;;;;;4958446;28;20491;-86
2022/03/15 01:01:03;;;;;;;7.10;3.37;;;8.50;99.90;;;;;;4958827;29;20449;-86
2022/03/15 01:03:33;;;;;;;10.23;3.63;;;8.50;99.90;;;;;;4973659;28;20465;-86
2022/03/15 01:06:10;;;;;;;7.03;3.10;;;8.40;99.90;;;;;;4964101;28;20429;-86
2022/03/15 01:08:44;;;;;;;10.43;4.03;;;8.50;99.90;;;;;;4967614;28;20295;-87
2022/03/15 01:11:14;;;;;;;5.23;3.30;;;8.40;99.90;;;;;;4973872;28;20457;-86
2022/03/15 01:13:44;;;;;;;7.60;3.20;;;8.40;99.90;;;;;;4969166;29;20453;-86
2022/03/15 01:16:12;;;;;;;5.87;3.40;;;8.40;99.90;;;;;;4976828;28;20501;-86
2022/03/15 01:18:41;;;;;;;10.50;3.30;;;8.40;99.90;;;;;;4976191;28;20547;-86
2022/03/15 01:21:08;;;;;;;8.90;3.30;;;8.30;99.90;;;;;;4973374;29;20921;-86
2022/03/15 01:23:36;;;;;;;7.43;3.50;;;8.20;99.90;;;;;;4975665;28;20540;-85
2022/03/15 01:26:03;;;;;;;7.30;3.90;;;8.20;99.90;;;;;;4964740;28;20495;-86
2022/03/15 01:28:36;;;;;;;5.37;3.00;;;8.30;99.90;;;;;;4964260;28;20461;-86
2022/03/15 01:31:09;;;;;;;6.00;3.07;;;8.40;99.90;;;;;;4969419;29;20449;-86
2022/03/15 01:33:38;;;;;;;6.43;3.37;;;8.40;99.90;;;;;;4965267;29;20599;-86
2022/03/15 01:36:07;;;;;;;6.30;3.37;;;8.40;99.90;;;;;;4961323;28;20944;-88
2022/03/15 01:38:35;;;;;;;5.00;3.40;;;8.20;99.90;;;;;;4965520;28;20472;-86
2022/03/15 01:41:05;;;;;;;8.23;3.33;;;8.20;99.90;;;;;;4971878;28;20462;-86
2022/03/15 01:43:40;;;;;;;6.80;3.67;;;8.10;99.90;;;;;;4972687;28;20313;-86
2022/03/15 01:46:07;;;;;;;6.22;3.63;;;8.30;99.90;;;;;;4973510;29;20445;-86
2022/03/15 01:48:36;;;;;;;10.15;4.60;;;8.30;99.90;;;;;;4977116;28;20280;-85
2022/03/15 01:51:03;;;;;;;6.87;3.70;;;8.30;99.90;;;;;;4974909;28;20201;-88
2022/03/15 01:53:33;;;;;;;5.80;3.60;;;8.40;99.90;;;;;;4974137;28;20454;-87
2022/03/15 01:56:00;;;;;;;7.03;3.17;;;8.30;99.90;;;;;;4969580;28;20461;-87
2022/03/15 01:58:43;;;;;;;7.93;3.90;;;8.30;99.90;;;;;;4964826;28;20528;-87
2022/03/15 02:01:11;;;;;;;5.23;3.47;;;8.30;99.90;;;;;;4961865;29;20449;-87
2022/03/15 02:03:38;;;;;;;6.70;3.07;;;8.40;99.90;;;;;;4964562;28;20453;-87
2022/03/15 02:06:06;;;;;;;6.13;3.20;;;8.40;99.90;;;;;;4966428;28;20456;-86
2022/03/15 02:08:35;;;;;;;8.87;4.13;;;8.40;99.90;;;;;;4966861;28;20473;-86
2022/03/15 02:11:04;;;;;;;6.47;3.00;;;8.30;99.90;;;;;;4970529;28;20448;-86
2022/03/15 02:13:34;;;;;;;7.03;2.97;;;8.30;99.90;;;;;;4981096;28;20449;-85
2022/03/15 02:16:02;;;;;;;8.90;3.60;;;8.30;99.90;;;;;;4976569;28;20528;-85
2022/03/15 02:18:34;;;;;;;7.97;3.13;;;8.30;99.90;;;;;;4969808;28;20517;-87
2022/03/15 02:21:03;;;;;;;10.30;3.73;;;8.20;99.90;;;;;;4980091;28;20453;-86
2022/03/15 02:23:33;;;;;;;9.50;2.90;;;8.30;99.90;;;;;;4972973;28;20453;-87
2022/03/15 02:26:01;;;;;;;9.57;3.60;;;8.30;99.90;;;;;;4970204;28;20460;-87
2022/03/15 02:28:31;;;;;;;6.33;2.97;;;8.30;99.90;;;;;;4975264;28;20445;-87
2022/03/15 02:31:00;;;;;;;7.83;3.37;;;8.40;99.90;;;;;;4967370;28;20452;-87
2022/03/15 02:33:27;;;;;;;11.33;3.20;;;8.30;99.90;;;;;;4965326;28;20445;-87
2022/03/15 02:35:54;;;;;;;8.10;3.20;;;8.30;99.90;;;;;;4970007;28;20446;-86
2022/03/15 02:38:26;;;;;;;6.00;3.50;;;8.20;99.90;;;;;;4978494;28;20528;-86
2022/03/15 02:40:53;;;;;;;6.90;3.53;;;8.20;99.90;;;;;;4975110;28;20456;-87
2022/03/15 02:43:21;;;;;;;7.30;3.17;;;8.20;99.90;;;;;;4967900;28;20449;-87
2022/03/15 02:45:48;;;;;;;8.38;3.22;;;8.20;99.90;;;;;;4969974;29;20452;-87
2022/03/15 02:48:15;;;;;;;9.80;2.77;;;8.20;99.90;;;;;;4964596;28;20237;-87
2022/03/15 02:50:42;;;;;;;6.40;3.20;;;8.20;99.90;;;;;;4964719;28;20449;-87
2022/03/15 02:53:09;;;;;;;7.60;3.17;;;8.10;99.90;;;;;;4966608;28;20464;-86
2022/03/15 02:55:40;;;;;;;7.45;3.45;;;8.10;99.90;;;;;;4976833;29;20453;-87
2022/03/15 02:58:07;;;;;;;5.40;3.40;;;8.20;99.90;;;;;;4966438;28;20227;-87
2022/03/15 03:00:34;;;;;;;12.40;3.10;;;8.30;99.90;;;;;;4967213;28;20524;-87
2022/03/15 03:03:02;;;;;;;6.23;2.90;;;8.30;99.90;;;;;;4966422;28;20449;-87
2022/03/15 03:05:29;;;;;;;7.17;3.03;;;8.20;99.90;;;;;;4965279;28;20580;-88
2022/03/15 03:07:56;;;;;;;5.40;2.70;;;8.10;99.90;;;;;;4964438;28;20473;-87
2022/03/15 03:10:25;;;;;;;8.18;3.30;;;8.00;99.90;;;;;;4969642;28;20445;-87
2022/03/15 03:12:54;;;;;;;8.83;3.33;;;8.10;99.90;;;;;;4968248;28;20293;-87
2022/03/15 03:15:22;;;;;;;5.17;2.60;;;8.10;99.90;;;;;;4962105;28;20461;-87
2022/03/15 03:17:50;;;;;;;6.07;3.40;;;8.10;99.90;;;;;;4963455;28;20542;-87
2022/03/15 03:20:19;;;;;;;7.13;2.93;;;8.10;99.90;;;;;;4964815;28;20457;-87
2022/03/15 03:22:49;;;;;;;5.60;3.17;;;8.20;99.90;;;;;;4964397;29;20541;-88
2022/03/15 03:25:23;;;;;;;7.57;3.90;;;8.20;99.90;;;;;;4967148;29;20468;-87
2022/03/15 03:27:51;;;;;;;7.40;3.27;;;8.20;99.90;;;;;;4967577;28;20466;-86
2022/03/15 03:30:20;;;;;;;7.63;3.43;;;8.10;99.90;;;;;;4965746;28;20489;-87
2022/03/15 03:32:50;;;;;;;4.57;3.10;;;8.10;99.90;;;;;;4961228;28;20485;-87
2022/03/15 03:35:17;;;;;;;6.43;3.30;;;8.10;99.90;;;;;;4960273;29;20453;-87
2022/03/15 03:37:47;;;;;;;5.38;3.22;;;8.10;99.90;;;;;;4965658;28;20488;-87
2022/03/15 03:40:16;;;;;;;5.57;3.07;;;8.10;99.90;;;;;;4964458;28;20236;-85
2022/03/15 03:42:44;;;;;;;8.27;3.42;;;8.10;99.90;;;;;;4965079;29;20881;-86
2022/03/15 03:45:15;;;;;;;11.73;4.67;;;8.20;99.90;;;;;;4963963;28;20684;-86
2022/03/15 03:47:44;;;;;;;6.50;3.57;;;8.10;99.90;;;;;;4960565;28;20492;-86
2022/03/15 03:50:11;;;;;;;6.60;2.90;;;8.10;99.90;;;;;;4960331;29;20418;-86
2022/03/15 03:52:38;;;;;;;6.23;3.00;;;8.00;99.90;;;;;;4960034;28;20499;-86
2022/03/15 03:55:08;;;;;;;6.00;3.20;;;8.00;99.90;;;;;;4973727;28;20457;-85
2022/03/15 03:57:36;;;;;;;7.45;3.33;;;8.10;99.90;;;;;;4976958;28;20243;-86
2022/03/15 04:00:05;;;;;;;6.38;2.40;;;8.10;99.90;;;;;;4978467;28;20237;-85
2022/03/15 04:02:40;;;;;;;5.67;2.80;;;8.00;99.90;;;;;;4976030;28;20205;-85
2022/03/15 04:05:12;;;;;;;6.30;3.10;;;8.10;99.90;;;;;;4966040;29;20504;-86
2022/03/15 04:07:41;;;;;;;7.40;2.90;;;8.10;99.90;;;;;;4975537;28;20569;-87
2022/03/15 04:10:09;;;;;;;6.87;2.93;;;8.10;99.90;;;;;;4970412;28;20481;-86
2022/03/15 04:12:36;;;;;;;5.80;3.00;;;8.20;99.90;;;;;;4968652;28;20464;-86
2022/03/15 04:15:08;;;;;;;5.60;3.10;;;8.10;99.90;;;;;;4966222;29;20525;-86
2022/03/15 04:17:35;;;;;;;6.17;3.63;;;8.10;99.90;;;;;;4967123;28;20493;-85
2022/03/15 04:20:03;;;;;;;6.00;3.17;;;8.00;99.90;;;;;;4977176;28;20532;-86
2022/03/15 04:22:32;;;;;;;5.65;3.28;;;8.10;99.90;;;;;;4967336;28;20477;-86
2022/03/15 04:24:59;;;;;;;6.20;3.43;;;8.20;99.90;;;;;;4969766;28;20653;-87
2022/03/15 04:27:28;;;;;;;7.40;3.53;;;8.00;99.90;;;;;;4959799;28;20481;-86
2022/03/15 04:29:55;;;;;;;7.17;3.10;;;8.10;99.90;;;;;;4959117;28;20491;-86
2022/03/15 04:32:23;;;;;;;5.60;3.33;;;8.10;99.90;;;;;;4959020;28;20520;-86
2022/03/15 04:34:50;;;;;;;7.10;3.47;;;8.10;99.90;;;;;;4973077;28;20438;-86
2022/03/15 04:37:18;;;;;;;5.88;3.00;;;8.10;99.90;;;;;;4970952;28;20452;-86
2022/03/15 04:39:47;;;;;;;6.20;3.20;;;8.00;99.90;;;;;;4972393;28;20332;-85
2022/03/15 04:42:14;;;;;;;4.50;3.20;;;8.00;99.90;;;;;;4971936;28;20457;-87
2022/03/15 04:44:41;;;;;;;6.80;3.10;;;8.00;99.90;;;;;;4963846;28;20527;-87
2022/03/15 04:47:08;;;;;;;5.90;2.97;;;7.90;99.90;;;;;;4963093;28;20583;-87
2022/03/15 06:58:34;;;;;;;7.20;4.20;;;8.80;99.90;;;;;;4959789;28;20437;-89
2022/03/15 07:07:27;;;;;;;9.80;4.10;;;9.20;99.90;;;;;;4949756;28;20521;-89
2022/03/15 07:23:02;;;;;;;12.50;4.77;;;9.60;99.90;;;;;;4882095;29;20448;-88
2022/03/15 07:28:57;;;;;;;8.17;4.70;;;9.70;99.90;;;;;;4957160;29;20460;-87
2022/03/15 07:35:15;;;;;;;12.20;4.70;;;9.70;99.90;;;;;;4851770;29;20453;-88
2022/03/15 07:40:57;;;;;;;9.03;4.93;;;9.80;99.90;;;;;;4905158;29;20489;-88
2022/03/15 07:44:00;;;;;;;9.50;4.60;;;9.80;99.90;;;;;;4955823;29;20469;-88
2022/03/15 07:46:56;;;;;;;6.13;3.97;;;9.80;99.90;;;;;;4954981;29;20454;-90
2022/03/15 07:49:56;;;;;;;12.77;4.10;;;9.90;99.90;;;;;;4950607;29;20458;-87
2022/03/15 07:52:43;;;;;;;11.13;4.80;;;10.00;99.90;;;;;;4951640;29;20952;-87
2022/03/15 07:55:39;;;;;;;6.93;4.40;;;10.20;99.90;;;;;;4947618;29;20971;-88
2022/03/15 08:04:20;;;;;;;8.60;4.00;;;10.40;99.90;;;;;;4946660;29;20485;-87
2022/03/15 08:10:32;;;;;;;9.20;4.50;;;10.60;99.90;;;;;;4931889;29;20456;-90
2022/03/15 08:24:54;;;;;;;11.83;4.60;;;10.90;99.90;;;;;;4948574;29;20446;-89
2022/03/15 08:27:26;;;;;;;6.47;3.77;;;11.00;99.90;;;;;;4945745;29;20454;-88
2022/03/15 08:30:20;;;;;;;7.27;3.57;;;11.20;99.90;;;;;;4945813;29;20525;-88
2022/03/15 08:33:26;;;;;;;10.37;4.10;;;11.30;99.90;;;;;;4948015;29;20467;-87
2022/03/15 08:36:13;;;;;;;6.70;3.90;;;11.40;99.90;;;;;;4947571;29;20517;-88
2022/03/15 08:38:50;;;;;;;8.90;4.03;;;11.40;99.90;;;;;;4947099;29;20439;-87
2022/03/15 08:58:16;;;;;;;6.23;3.60;;;11.90;99.90;;;;;;4800254;29;20449;-87
2022/03/15 09:01:33;;;;;;;8.43;3.77;;;12.00;99.90;;;;;;4923297;29;20473;-88
2022/03/15 09:04:50;;;;;;;8.13;3.57;;;12.10;99.90;;;;;;4946690;29;20482;-88
2022/03/15 09:10:40;;;;;;;;;;;;;;;;;;;;;
2022/03/15 09:13:22;;;;;;;7.50;3.77;;;12.20;99.90;;;;;;4958663;29;20463;-89
2022/03/15 09:19:08;;;;;;;8.90;3.17;;;12.20;99.90;;;;;;4950029;29;20450;-88
2022/03/15 09:21:50;;;;;;;6.77;2.90;;;12.10;99.90;;;;;;4946849;29;20502;-88
2022/03/15 09:24:23;;;;;;;8.50;2.73;;;12.10;99.90;;;;;;4946612;29;20418;-88
2022/03/15 09:26:52;;;;;;;4.70;2.50;;;12.10;99.90;;;;;;4946649;29;20458;-89
2022/03/15 09:29:48;;;;;;;6.27;3.00;;;12.10;99.90;;;;;;4957085;29;20446;-87
2022/03/15 09:35:40;;;;;;;4.87;2.63;;;12.20;99.90;;;;;;4945496;29;20458;-88
2022/03/15 09:41:28;;;;;;;6.20;2.70;;;12.00;99.90;;;;;;4948503;29;20565;-87
2022/03/15 09:50:59;;;;;;;4.83;2.70;;;11.90;99.90;;;;;;4945267;29;20905;-88
2022/03/15 09:53:54;;;;;;;6.10;2.87;;;11.80;99.90;;;;;;4949990;29;20458;-88
2022/03/15 09:56:43;;;;;;;7.13;2.90;;;11.90;99.90;;;;;;4950178;29;20446;-88
2022/03/15 10:05:09;;;;;;;6.10;3.03;;;11.90;99.90;;;;;;4946458;29;20516;-88
2022/03/15 10:07:51;;;;;;;5.60;2.83;;;11.80;99.90;;;;;;4945548;29;20482;-88
2022/03/15 10:13:43;;;;;;;8.10;2.60;;;11.80;99.90;;;;;;4943540;28;20429;-86
2022/03/15 10:16:48;;;;;;;4.93;2.70;;;11.80;99.90;;;;;;4945828;29;20494;-88
2022/03/15 10:19:28;;;;;;;4.87;2.13;;;11.60;99.90;;;;;;4952978;29;20442;-88
2022/03/15 10:25:24;;;;;;;9.37;3.07;;;11.50;99.90;;;;;;4960567;29;20560;-87
2022/03/15 10:28:20;;;;;;;6.43;3.30;;;11.60;99.90;;;;;;4956408;29;20450;-89
2022/03/15 10:34:00;;;;;;;5.27;3.20;;;12.10;99.90;;;;;;4956482;29;20452;-87
2022/03/15 10:36:51;;;;;;;4.53;2.60;;;12.10;99.90;;;;;;4950628;29;20422;-88
2022/03/15 10:42:51;;;;;;;8.10;3.20;;;12.40;99.90;;;;;;4920919;29;20537;-88
2022/03/15 10:45:39;;;;;;;5.20;2.67;;;12.20;99.90;;;;;;4948554;29;20452;-89
2022/03/15 10:48:24;;;;;;;5.63;3.10;;;12.00;99.90;;;;;;4949696;29;20450;-88
2022/03/15 16:51:37;;;;;;;10.23;4.20;;;13.10;99.90;;;;;;5076556;23;20558;-88
2022/03/15 16:54:36;;;;;;;;;;;;;;;;;;;;;
2022/03/15 16:57:13;;;;;;;7.90;4.90;;;13.40;99.90;;;;;;4982285;28;20441;-87
2022/03/15 16:59:59;;;;;;;9.10;4.83;;;13.30;99.90;;;;;;4983270;28;20464;-87
2022/03/15 17:02:33;;;;;;;6.00;3.70;;;13.10;99.90;;;;;;4984143;28;20488;-87
2022/03/15 17:08:04;;;;;;;7.53;4.90;;;12.80;99.90;;;;;;4984313;28;20401;-88
2022/03/15 17:24:39;;;;;;;9.27;6.43;;;12.00;99.90;;;;;;5005467;28;20440;-89
2022/03/15 17:33:18;;;;;;;37.97;32.57;;;11.60;99.90;;;;;;5005140;28;20451;-89
2022/03/15 17:35:55;;;;;;;61.07;48.30;;;11.50;99.90;;;;;;5004181;28;20429;-87
2022/03/15 17:38:24;;;;;;;11.40;8.50;;;11.50;99.90;;;;;;5004477;28;20392;-87
2022/03/15 17:40:56;;;;;;;15.87;10.20;;;11.30;99.90;;;;;;5002814;28;20574;-87
2022/03/15 17:43:41;;;;;;;9.00;7.43;;;11.30;99.90;;;;;;5004567;28;20435;-87
2022/03/15 17:46:22;;;;;;;16.40;9.67;;;11.30;99.90;;;;;;5003066;28;20459;-88
2022/03/15 17:49:36;;;;;;;11.60;8.10;;;11.20;99.90;;;;;;5003452;28;20812;-88
2022/03/15 17:52:59;;;;;;;13.80;9.00;;;11.00;99.90;;;;;;5003069;28;20474;-88
2022/03/15 17:55:47;;;;;;;9.87;7.33;;;11.20;99.90;;;;;;4943475;29;20533;-90
2022/03/15 17:59:10;;;;;;;10.80;8.30;;;11.20;99.90;;;;;;4945365;29;20554;-89
2022/03/15 18:01:44;;;;;;;12.67;8.43;;;11.30;99.90;;;;;;4893424;29;20466;-85
2022/03/15 18:10:46;;;;;;;11.40;8.43;;;11.30;99.90;;;;;;4953830;29;20485;-89
2022/03/15 18:13:25;;;;;;;16.20;8.40;;;11.40;99.90;;;;;;4993167;28;20451;-88
2022/03/15 18:16:18;;;;;;;16.13;9.67;;;11.50;99.90;;;;;;5005283;28;20426;-88
2022/03/15 18:19:03;;;;;;;21.43;12.70;;;11.30;99.90;;;;;;5005892;28;20442;-87
2022/03/15 18:21:43;;;;;;;14.17;10.17;;;11.30;99.90;;;;;;5011999;28;20491;-89
2022/03/15 18:24:22;;;;;;;16.67;10.03;;;11.20;99.90;;;;;;5015119;28;20406;-85
2022/03/15 18:26:59;;;;;;;13.87;10.90;;;11.20;99.90;;;;;;5012557;28;20440;-89
2022/03/15 18:29:50;;;;;;;13.27;11.10;;;11.20;99.90;;;;;;5004545;28;20432;-88
2022/03/15 18:32:40;;;;;;;15.50;10.70;;;11.20;99.90;;;;;;5006722;28;20426;-87
2022/03/15 18:35:19;;;;;;;15.37;11.60;;;11.20;99.90;;;;;;5003393;28;20452;-88
2022/03/15 18:38:01;;;;;;;18.30;11.90;;;11.20;99.90;;;;;;5007975;28;20453;-87
2022/03/15 18:40:49;;;;;;;12.83;10.00;;;11.20;99.90;;;;;;5014282;28;20507;-87
2022/03/15 18:47:53;;;;;;;15.93;10.13;;;11.40;99.90;;;;;;4987269;28;20454;-88
2022/03/15 18:54:22;;;;;;;16.03;9.60;;;11.70;99.90;;;;;;4870802;29;20404;-88
2022/03/15 18:56:51;;;;;;;15.70;9.53;;;11.60;99.90;;;;;;4898846;28;20454;-85
2022/03/15 18:59:20;;;;;;;17.80;10.07;;;11.50;99.90;;;;;;5013484;28;20492;-87
2022/03/15 19:01:47;;;;;;;17.90;11.90;;;11.50;99.90;;;;;;5009899;28;20561;-87
2022/03/15 19:04:17;;;;;;;13.43;9.53;;;11.40;99.90;;;;;;5007325;28;20479;-87
2022/03/15 19:06:47;;;;;;;23.20;16.27;;;11.40;99.90;;;;;;5017610;28;20463;-88
2022/03/15 19:09:15;;;;;;;14.30;11.80;;;11.40;99.90;;;;;;5019843;28;20471;-87
2022/03/15 19:11:44;;;;;;;17.80;11.07;;;11.50;99.90;;;;;;5010812;28;20471;-88
2022/03/15 19:14:20;;;;;;;13.77;11.50;;;11.50;99.90;;;;;;5015034;28;20417;-88
2022/03/15 19:16:48;;;;;;;20.57;12.57;;;11.40;99.90;;;;;;5015391;28;20463;-88
2022/03/15 19:19:15;;;;;;;13.37;11.70;;;11.50;99.90;;;;;;5007640;28;20547;-88
2022/03/15 19:21:45;;;;;;;17.93;12.93;;;11.50;99.90;;;;;;5006131;28;20483;-88
2022/03/15 19:24:20;;;;;;;15.90;13.17;;;11.30;99.90;;;;;;5010365;28;20515;-87
2022/03/15 19:26:48;;;;;;;23.70;13.53;;;11.10;99.90;;;;;;5010054;28;20463;-89
2022/03/15 19:29:17;;;;;;;20.03;13.43;;;11.20;99.90;;;;;;5010192;28;20490;-88
2022/03/15 19:31:51;;;;;;;19.73;14.33;;;11.30;99.90;;;;;;5005883;28;20442;-88
2022/03/15 19:34:20;;;;;;;19.87;12.70;;;11.10;99.90;;;;;;5007443;28;20448;-87
2022/03/15 19:36:53;;;;;;;20.40;14.23;;;11.00;99.90;;;;;;5006810;28;20458;-88
2022/03/15 19:39:21;;;;;;;18.27;15.63;;;10.90;99.90;;;;;;5005069;28;20440;-88
2022/03/15 19:41:50;;;;;;;23.57;16.23;;;10.90;99.90;;;;;;5010127;28;20483;-88
2022/03/15 19:44:26;;;;;;;25.47;15.50;;;10.80;99.90;;;;;;5007818;28;20448;-88
2022/03/15 19:47:02;;;;;;;19.57;14.43;;;10.80;99.90;;;;;;5011254;28;20448;-87
2022/03/15 19:49:34;;;;;;;18.90;15.00;;;10.90;99.90;;;;;;5010907;28;20498;-88
2022/03/15 19:52:04;;;;;;;20.37;14.90;;;10.80;99.90;;;;;;5005335;28;20478;-88
2022/03/15 19:54:37;;;;;;;17.67;12.23;;;10.90;99.90;;;;;;5004364;28;20456;-88
2022/03/15 19:57:07;;;;;;;17.93;12.90;;;10.90;99.90;;;;;;5004025;28;20455;-87
2022/03/15 19:59:36;;;;;;;16.40;12.23;;;11.00;99.90;;;;;;5004002;28;20585;-88
2022/03/15 20:02:05;;;;;;;19.43;14.67;;;11.20;99.90;;;;;;5003657;28;20557;-88
2022/03/15 20:04:36;;;;;;;20.83;13.00;;;11.00;99.90;;;;;;5004432;28;20860;-89
2022/03/15 20:07:03;;;;;;;18.77;15.20;;;11.00;99.90;;;;;;5003927;28;20793;-89
2022/03/15 20:09:34;;;;;;;21.47;13.40;;;10.80;99.90;;;;;;5002476;28;20455;-87
2022/03/15 20:12:16;;;;;;;22.67;14.63;;;10.60;99.90;;;;;;5002818;28;20510;-88
2022/03/15 20:14:46;;;;;;;23.83;16.60;;;10.60;99.90;;;;;;5002315;28;20521;-90
2022/03/15 20:17:13;;;;;;;20.30;16.77;;;10.40;99.90;;;;;;5005212;28;20475;-89
2022/03/15 20:19:40;;;;;;;25.13;16.90;;;10.50;99.90;;;;;;5005584;28;20482;-89
2022/03/15 20:22:16;;;;;;;19.47;16.53;;;10.30;99.90;;;;;;5004704;28;20479;-88
2022/03/15 20:24:46;;;;;;;20.87;17.73;;;10.40;99.90;;;;;;5004371;28;20443;-90
2022/03/15 20:27:13;;;;;;;29.03;18.50;;;10.30;99.90;;;;;;5004857;28;20487;-89
2022/03/15 20:29:40;;;;;;;32.47;21.07;;;10.30;99.90;;;;;;5006479;28;20455;-88
2022/03/15 20:32:08;;;;;;;26.00;18.17;;;10.30;99.90;;;;;;5005402;28;20438;-88
2022/03/15 20:34:35;;;;;;;27.50;21.30;;;10.20;99.90;;;;;;5004233;28;20459;-90
2022/03/15 20:37:03;;;;;;;29.57;21.40;;;10.20;99.90;;;;;;5004402;28;20891;-88
2022/03/15 20:39:30;;;;;;;22.53;19.20;;;10.20;99.90;;;;;;5003875;28;20436;-88
2022/03/15 20:41:58;;;;;;;23.70;20.27;;;10.10;99.90;;;;;;5002410;28;20917;-88
2022/03/15 20:44:26;;;;;;;26.80;22.30;;;10.10;99.90;;;;;;5002591;28;20803;-88
2022/03/15 20:46:56;;;;;;;26.40;21.80;;;10.00;99.90;;;;;;5002220;28;20490;-88
2022/03/15 20:49:29;;;;;;;23.47;20.97;;;10.10;99.90;;;;;;5002639;28;20459;-89
2022/03/15 20:52:05;;;;;;;26.67;22.00;;;10.10;99.90;;;;;;5002463;28;20470;-89
2022/03/15 20:54:33;;;;;;;27.60;21.80;;;10.20;99.90;;;;;;5008098;28;20490;-89
2022/03/15 20:57:04;;;;;;;26.07;22.00;;;10.20;99.90;;;;;;5008351;28;20469;-89
2022/03/15 20:59:37;;;;;;;26.60;21.57;;;10.20;99.90;;;;;;5005277;28;20426;-90
2022/03/15 21:02:13;;;;;;;23.13;20.63;;;10.30;99.90;;;;;;5010141;28;20527;-89
2022/03/15 21:04:42;;;;;;;24.63;20.20;;;10.20;99.90;;;;;;5010658;28;20443;-89
2022/03/15 21:07:11;;;;;;;29.10;21.70;;;10.20;99.90;;;;;;5008503;28;20523;-88
2022/03/15 21:09:42;;;;;;;24.10;20.70;;;10.20;99.90;;;;;;5006577;28;20494;-88
2022/03/15 21:12:10;;;;;;;23.80;20.30;;;10.30;99.90;;;;;;5004518;28;20520;-89
2022/03/15 21:14:39;;;;;;;24.27;20.63;;;10.30;99.90;;;;;;5007777;28;20534;-88
2022/03/15 21:17:08;;;;;;;20.13;17.77;;;10.30;99.90;;;;;;5004306;28;20422;-88
2022/03/15 21:36:14;;;;;;;18.80;16.80;;;10.50;99.90;;;;;;4962350;28;20460;-89
2022/03/15 21:52:41;;;;;;;21.03;16.60;;;10.70;99.90;;;;;;4967136;29;20520;-89
2022/03/15 22:12:31;;;;;;;20.00;15.60;;;11.10;99.90;;;;;;4972813;28;20462;-89
2022/03/15 22:15:38;;;;;;;20.50;15.40;;;11.10;99.90;;;;;;5003083;28;20438;-87
2022/03/15 22:21:44;;;;;;;23.70;18.55;;;10.90;99.90;;;;;;5001113;28;20479;-88
2022/03/15 23:17:56;;;;;;;25.10;19.03;;;10.40;99.90;;;;;;4996615;28;20448;-88
2022/03/15 23:23:08;;;;;;;22.67;17.60;;;10.30;99.90;;;;;;4994382;28;20475;-88
2022/03/15 23:25:36;;;;;;;24.60;18.40;;;10.30;99.90;;;;;;4992770;28;20427;-88
2022/03/15 23:28:05;;;;;;;22.47;17.77;;;10.20;99.90;;;;;;4987666;28;20447;-88
2022/03/15 23:30:36;;;;;;;24.10;16.73;;;10.20;99.90;;;;;;4987007;28;20954;-88
2022/03/15 23:33:07;;;;;;;25.33;17.90;;;10.20;99.90;;;;;;4985087;28;20435;-88
2022/03/15 23:35:34;;;;;;;25.43;18.43;;;10.10;99.90;;;;;;4984508;28;20529;-89
2022/03/15 23:38:02;;;;;;;22.50;16.50;;;10.20;99.90;;;;;;4982276;28;20491;-87
2022/03/15 23:40:29;;;;;;;24.50;18.77;;;10.10;99.90;;;;;;4986342;28;20460;-88
2022/03/15 23:42:57;;;;;;;25.20;18.40;;;10.20;99.90;;;;;;4997967;28;20476;-88
2022/03/15 23:45:28;;;;;;;26.20;18.43;;;10.20;99.90;;;;;;4991613;28;20479;-89
2022/03/15 23:47:58;;;;;;;24.87;19.10;;;10.30;99.90;;;;;;4989256;28;20455;-87
2022/03/15 23:50:26;;;;;;;24.50;19.13;;;10.20;99.90;;;;;;4982921;28;20457;-88
2022/03/15 23:52:57;;;;;;;23.50;17.33;;;10.30;99.90;;;;;;4983980;28;20902;-88
2022/03/15 23:55:25;;;;;;;24.03;18.50;;;10.30;99.90;;;;;;4983712;28;20476;-88
2022/03/15 23:57:57;;;;;;;22.10;17.07;;;10.40;99.90;;;;;;4987946;28;20444;-87
